sensor_id;sensor_type;location;lat;lon;timestamp;P1;durP1;ratioP1;P2;durP2;ratioP2
33836;SDS011;20140;49.356;8.812;2023-02-16T00:01:32;28.85;;;18.98;;
33836;SDS011;20140;49.356;8.812;2023-02-16T00:03:59;26.92;;;19.15;;
33836;SDS011;20140;49.356;8.812;2023-02-16T00:06:25;33.67;;;20.17;;
33836;SDS011;20140;49.356;8.812;2023-02-16T00:08:53;29.35;;;20.33;;
33836;SDS011;20140;49.356;8.812;2023-02-16T00:14:12;29.58;;;20.67;;
33836;SDS011;20140;49.356;8.812;2023-02-16T00:16:39;28.93;;;20.27;;
33836;SDS011;20140;49.356;8.812;2023-02-16T00:19:10;33.60;;;21.43;;
33836;SDS011;20140;49.356;8.812;2023-02-16T00:21:41;29.27;;;20.83;;
33836;SDS011;20140;49.356;8.812;2023-02-16T00:24:07;32.93;;;20.13;;
33836;SDS011;20140;49.356;8.812;2023-02-16T00:26:32;34.03;;;20.87;;
33836;SDS011;20140;49.356;8.812;2023-02-16T00:28:59;29.90;;;20.00;;
33836;SDS011;20140;49.356;8.812;2023-02-16T00:31:25;29.00;;;20.30;;
33836;SDS011;20140;49.356;8.812;2023-02-16T00:33:52;32.87;;;21.23;;
33836;SDS011;20140;49.356;8.812;2023-02-16T00:36:18;32.00;;;20.70;;
33836;SDS011;20140;49.356;8.812;2023-02-16T00:38:45;29.73;;;19.20;;
33836;SDS011;20140;49.356;8.812;2023-02-16T00:41:20;33.20;;;20.17;;
33836;SDS011;20140;49.356;8.812;2023-02-16T00:46:54;31.10;;;20.45;;
33836;SDS011;20140;49.356;8.812;2023-02-16T00:49:20;31.75;;;21.52;;
33836;SDS011;20140;49.356;8.812;2023-02-16T00:51:47;31.98;;;21.17;;
33836;SDS011;20140;49.356;8.812;2023-02-16T00:54:13;30.08;;;19.30;;
33836;SDS011;20140;49.356;8.812;2023-02-16T00:56:39;26.87;;;17.47;;
33836;SDS011;20140;49.356;8.812;2023-02-16T00:59:07;26.92;;;19.33;;
33836;SDS011;20140;49.356;8.812;2023-02-16T01:01:38;34.45;;;20.75;;
33836;SDS011;20140;49.356;8.812;2023-02-16T01:04:05;30.73;;;20.90;;
33836;SDS011;20140;49.356;8.812;2023-02-16T01:06:31;27.33;;;18.70;;
33836;SDS011;20140;49.356;8.812;2023-02-16T01:09:17;32.38;;;18.83;;
33836;SDS011;20140;49.356;8.812;2023-02-16T01:12:02;27.58;;;19.02;;
33836;SDS011;20140;49.356;8.812;2023-02-16T01:14:31;29.25;;;19.40;;
33836;SDS011;20140;49.356;8.812;2023-02-16T01:16:57;31.80;;;18.35;;
33836;SDS011;20140;49.356;8.812;2023-02-16T01:19:23;27.20;;;18.42;;
33836;SDS011;20140;49.356;8.812;2023-02-16T01:21:49;31.17;;;19.17;;
33836;SDS011;20140;49.356;8.812;2023-02-16T01:24:14;34.37;;;20.47;;
33836;SDS011;20140;49.356;8.812;2023-02-16T01:26:45;28.73;;;18.53;;
33836;SDS011;20140;49.356;8.812;2023-02-16T01:29:14;26.05;;;18.05;;
33836;SDS011;20140;49.356;8.812;2023-02-16T01:31:41;28.17;;;18.80;;
33836;SDS011;20140;49.356;8.812;2023-02-16T01:34:07;24.92;;;17.75;;
33836;SDS011;20140;49.356;8.812;2023-02-16T01:36:34;26.08;;;17.30;;
33836;SDS011;20140;49.356;8.812;2023-02-16T01:39:02;27.13;;;18.63;;
33836;SDS011;20140;49.356;8.812;2023-02-16T01:44:33;28.92;;;18.60;;
33836;SDS011;20140;49.356;8.812;2023-02-16T01:49:49;27.63;;;19.02;;
33836;SDS011;20140;49.356;8.812;2023-02-16T01:52:26;28.15;;;17.77;;
33836;SDS011;20140;49.356;8.812;2023-02-16T01:55:03;25.40;;;16.88;;
33836;SDS011;20140;49.356;8.812;2023-02-16T02:00:12;25.75;;;19.15;;
33836;SDS011;20140;49.356;8.812;2023-02-16T02:02:45;28.70;;;18.42;;
33836;SDS011;20140;49.356;8.812;2023-02-16T02:05:16;25.98;;;16.75;;
33836;SDS011;20140;49.356;8.812;2023-02-16T02:08:03;29.52;;;20.23;;
33836;SDS011;20140;49.356;8.812;2023-02-16T02:13:33;28.40;;;17.05;;
33836;SDS011;20140;49.356;8.812;2023-02-16T02:16:03;32.45;;;18.95;;
33836;SDS011;20140;49.356;8.812;2023-02-16T02:18:30;29.00;;;17.90;;
33836;SDS011;20140;49.356;8.812;2023-02-16T02:29:38;25.13;;;16.67;;
33836;SDS011;20140;49.356;8.812;2023-02-16T02:32:21;24.88;;;16.50;;
33836;SDS011;20140;49.356;8.812;2023-02-16T02:37:31;28.00;;;17.33;;
33836;SDS011;20140;49.356;8.812;2023-02-16T02:45:38;27.38;;;18.45;;
33836;SDS011;20140;49.356;8.812;2023-02-16T02:48:07;25.60;;;17.33;;
33836;SDS011;20140;49.356;8.812;2023-02-16T02:56:44;26.93;;;17.67;;
33836;SDS011;20140;49.356;8.812;2023-02-16T02:59:38;25.00;;;18.40;;
33836;SDS011;20140;49.356;8.812;2023-02-16T03:02:26;25.40;;;17.48;;
33836;SDS011;20140;49.356;8.812;2023-02-16T03:04:54;27.27;;;18.65;;
33836;SDS011;20140;49.356;8.812;2023-02-16T03:07:22;26.52;;;17.48;;
33836;SDS011;20140;49.356;8.812;2023-02-16T03:10:08;26.73;;;17.73;;
33836;SDS011;20140;49.356;8.812;2023-02-16T03:12:53;25.65;;;18.15;;
33836;SDS011;20140;49.356;8.812;2023-02-16T03:15:21;27.23;;;19.45;;
33836;SDS011;20140;49.356;8.812;2023-02-16T03:17:48;31.92;;;19.40;;
33836;SDS011;20140;49.356;8.812;2023-02-16T03:20:37;27.80;;;17.80;;
33836;SDS011;20140;49.356;8.812;2023-02-16T03:23:22;26.50;;;17.60;;
33836;SDS011;20140;49.356;8.812;2023-02-16T03:26:07;26.70;;;17.85;;
33836;SDS011;20140;49.356;8.812;2023-02-16T03:28:51;33.90;;;18.20;;
33836;SDS011;20140;49.356;8.812;2023-02-16T03:31:36;32.63;;;18.75;;
33836;SDS011;20140;49.356;8.812;2023-02-16T03:34:02;28.67;;;17.52;;
33836;SDS011;20140;49.356;8.812;2023-02-16T03:36:30;29.80;;;19.13;;
33836;SDS011;20140;49.356;8.812;2023-02-16T03:38:58;29.08;;;19.27;;
33836;SDS011;20140;49.356;8.812;2023-02-16T03:41:24;37.97;;;20.77;;
33836;SDS011;20140;49.356;8.812;2023-02-16T03:43:50;33.17;;;20.90;;
33836;SDS011;20140;49.356;8.812;2023-02-16T03:46:16;35.17;;;20.57;;
33836;SDS011;20140;49.356;8.812;2023-02-16T03:48:42;36.72;;;21.27;;
33836;SDS011;20140;49.356;8.812;2023-02-16T03:51:08;34.58;;;21.10;;
33836;SDS011;20140;49.356;8.812;2023-02-16T03:53:33;40.25;;;22.90;;
33836;SDS011;20140;49.356;8.812;2023-02-16T03:55:59;39.60;;;22.27;;
33836;SDS011;20140;49.356;8.812;2023-02-16T03:58:24;35.28;;;21.50;;
33836;SDS011;20140;49.356;8.812;2023-02-16T04:00:50;43.72;;;23.92;;
33836;SDS011;20140;49.356;8.812;2023-02-16T04:03:16;39.20;;;23.20;;
33836;SDS011;20140;49.356;8.812;2023-02-16T04:05:42;40.88;;;23.60;;
33836;SDS011;20140;49.356;8.812;2023-02-16T04:08:08;38.30;;;24.30;;
33836;SDS011;20140;49.356;8.812;2023-02-16T04:10:35;35.63;;;21.38;;
33836;SDS011;20140;49.356;8.812;2023-02-16T04:13:01;36.35;;;21.88;;
33836;SDS011;20140;49.356;8.812;2023-02-16T04:15:27;34.53;;;21.25;;
33836;SDS011;20140;49.356;8.812;2023-02-16T04:17:54;43.15;;;22.95;;
33836;SDS011;20140;49.356;8.812;2023-02-16T04:20:21;43.92;;;24.45;;
33836;SDS011;20140;49.356;8.812;2023-02-16T04:22:52;42.90;;;22.52;;
33836;SDS011;20140;49.356;8.812;2023-02-16T04:25:18;37.40;;;21.65;;
33836;SDS011;20140;49.356;8.812;2023-02-16T04:27:44;31.55;;;19.67;;
33836;SDS011;20140;49.356;8.812;2023-02-16T04:30:14;48.43;;;23.60;;
33836;SDS011;20140;49.356;8.812;2023-02-16T04:32:46;42.78;;;22.85;;
33836;SDS011;20140;49.356;8.812;2023-02-16T04:35:12;33.40;;;22.40;;
33836;SDS011;20140;49.356;8.812;2023-02-16T04:37:38;40.75;;;24.50;;
33836;SDS011;20140;49.356;8.812;2023-02-16T04:40:04;40.97;;;23.90;;
33836;SDS011;20140;49.356;8.812;2023-02-16T04:42:30;41.70;;;23.67;;
33836;SDS011;20140;49.356;8.812;2023-02-16T04:44:56;34.90;;;22.92;;
33836;SDS011;20140;49.356;8.812;2023-02-16T04:47:21;36.92;;;21.70;;
33836;SDS011;20140;49.356;8.812;2023-02-16T04:49:49;37.08;;;22.10;;
33836;SDS011;20140;49.356;8.812;2023-02-16T04:52:15;37.73;;;21.73;;
33836;SDS011;20140;49.356;8.812;2023-02-16T04:54:40;37.33;;;22.37;;
33836;SDS011;20140;49.356;8.812;2023-02-16T04:57:07;30.27;;;18.33;;
33836;SDS011;20140;49.356;8.812;2023-02-16T04:59:33;30.40;;;19.00;;
33836;SDS011;20140;49.356;8.812;2023-02-16T05:01:58;30.83;;;18.95;;
33836;SDS011;20140;49.356;8.812;2023-02-16T05:04:24;29.80;;;19.63;;
33836;SDS011;20140;49.356;8.812;2023-02-16T05:06:49;28.07;;;17.37;;
33836;SDS011;20140;49.356;8.812;2023-02-16T05:09:15;27.63;;;18.40;;
33836;SDS011;20140;49.356;8.812;2023-02-16T05:11:40;25.40;;;16.48;;
33836;SDS011;20140;49.356;8.812;2023-02-16T05:14:26;27.27;;;17.00;;
33836;SDS011;20140;49.356;8.812;2023-02-16T05:17:06;33.67;;;17.98;;
33836;SDS011;20140;49.356;8.812;2023-02-16T05:19:46;27.85;;;17.27;;
33836;SDS011;20140;49.356;8.812;2023-02-16T05:22:14;25.95;;;16.95;;
33836;SDS011;20140;49.356;8.812;2023-02-16T05:24:40;22.67;;;15.38;;
33836;SDS011;20140;49.356;8.812;2023-02-16T05:27:07;25.57;;;16.97;;
33836;SDS011;20140;49.356;8.812;2023-02-16T05:29:35;25.40;;;16.02;;
33836;SDS011;20140;49.356;8.812;2023-02-16T05:32:01;30.83;;;18.87;;
33836;SDS011;20140;49.356;8.812;2023-02-16T05:34:26;32.57;;;18.57;;
33836;SDS011;20140;49.356;8.812;2023-02-16T05:36:52;34.53;;;19.70;;
33836;SDS011;20140;49.356;8.812;2023-02-16T05:39:19;32.47;;;20.45;;
33836;SDS011;20140;49.356;8.812;2023-02-16T05:41:45;37.58;;;20.33;;
33836;SDS011;20140;49.356;8.812;2023-02-16T05:44:10;36.27;;;21.37;;
33836;SDS011;20140;49.356;8.812;2023-02-16T05:46:37;36.50;;;22.02;;
33836;SDS011;20140;49.356;8.812;2023-02-16T05:49:03;36.65;;;21.48;;
33836;SDS011;20140;49.356;8.812;2023-02-16T05:51:30;31.73;;;21.02;;
33836;SDS011;20140;49.356;8.812;2023-02-16T05:53:55;31.97;;;19.10;;
33836;SDS011;20140;49.356;8.812;2023-02-16T05:56:21;27.48;;;19.38;;
33836;SDS011;20140;49.356;8.812;2023-02-16T05:58:47;26.02;;;18.70;;
33836;SDS011;20140;49.356;8.812;2023-02-16T06:01:13;27.23;;;17.23;;
33836;SDS011;20140;49.356;8.812;2023-02-16T06:03:39;28.30;;;18.67;;
33836;SDS011;20140;49.356;8.812;2023-02-16T06:06:05;26.40;;;17.33;;
33836;SDS011;20140;49.356;8.812;2023-02-16T06:08:31;24.80;;;16.67;;
33836;SDS011;20140;49.356;8.812;2023-02-16T06:10:57;29.87;;;17.50;;
33836;SDS011;20140;49.356;8.812;2023-02-16T06:13:23;27.98;;;16.92;;
33836;SDS011;20140;49.356;8.812;2023-02-16T06:15:53;22.58;;;14.93;;
33836;SDS011;20140;49.356;8.812;2023-02-16T06:18:20;24.48;;;15.95;;
33836;SDS011;20140;49.356;8.812;2023-02-16T06:20:49;25.65;;;17.17;;
33836;SDS011;20140;49.356;8.812;2023-02-16T06:23:15;23.27;;;15.85;;
33836;SDS011;20140;49.356;8.812;2023-02-16T06:25:41;29.63;;;19.70;;
33836;SDS011;20140;49.356;8.812;2023-02-16T06:28:13;32.40;;;18.85;;
33836;SDS011;20140;49.356;8.812;2023-02-16T06:30:38;34.03;;;20.48;;
33836;SDS011;20140;49.356;8.812;2023-02-16T06:33:06;40.03;;;22.33;;
33836;SDS011;20140;49.356;8.812;2023-02-16T06:35:32;35.03;;;20.95;;
33836;SDS011;20140;49.356;8.812;2023-02-16T06:37:57;33.97;;;21.33;;
33836;SDS011;20140;49.356;8.812;2023-02-16T06:40:23;37.33;;;22.27;;
33836;SDS011;20140;49.356;8.812;2023-02-16T06:42:49;32.28;;;20.60;;
33836;SDS011;20140;49.356;8.812;2023-02-16T06:45:15;35.33;;;21.48;;
33836;SDS011;20140;49.356;8.812;2023-02-16T06:47:40;32.65;;;19.50;;
33836;SDS011;20140;49.356;8.812;2023-02-16T06:50:06;33.75;;;20.52;;
33836;SDS011;20140;49.356;8.812;2023-02-16T06:52:33;28.75;;;19.98;;
33836;SDS011;20140;49.356;8.812;2023-02-16T06:54:59;27.27;;;17.42;;
33836;SDS011;20140;49.356;8.812;2023-02-16T06:57:25;27.57;;;17.73;;
33836;SDS011;20140;49.356;8.812;2023-02-16T06:59:50;28.13;;;17.40;;
33836;SDS011;20140;49.356;8.812;2023-02-16T07:02:16;26.30;;;17.10;;
33836;SDS011;20140;49.356;8.812;2023-02-16T07:04:41;26.00;;;17.67;;
33836;SDS011;20140;49.356;8.812;2023-02-16T07:07:07;25.87;;;18.23;;
33836;SDS011;20140;49.356;8.812;2023-02-16T07:09:34;27.60;;;17.87;;
33836;SDS011;20140;49.356;8.812;2023-02-16T07:12:01;29.33;;;17.45;;
33836;SDS011;20140;49.356;8.812;2023-02-16T07:14:26;27.53;;;18.33;;
33836;SDS011;20140;49.356;8.812;2023-02-16T07:16:52;27.40;;;19.50;;
33836;SDS011;20140;49.356;8.812;2023-02-16T07:19:17;31.50;;;18.93;;
33836;SDS011;20140;49.356;8.812;2023-02-16T07:21:43;30.27;;;20.13;;
33836;SDS011;20140;49.356;8.812;2023-02-16T07:24:08;31.73;;;19.50;;
33836;SDS011;20140;49.356;8.812;2023-02-16T07:26:34;33.65;;;21.83;;
33836;SDS011;20140;49.356;8.812;2023-02-16T07:29:02;33.33;;;21.23;;
33836;SDS011;20140;49.356;8.812;2023-02-16T07:31:28;29.47;;;19.50;;
33836;SDS011;20140;49.356;8.812;2023-02-16T07:33:53;32.55;;;21.38;;
33836;SDS011;20140;49.356;8.812;2023-02-16T07:36:19;30.83;;;19.55;;
33836;SDS011;20140;49.356;8.812;2023-02-16T07:38:45;30.05;;;21.80;;
33836;SDS011;20140;49.356;8.812;2023-02-16T07:41:11;29.08;;;18.45;;
33836;SDS011;20140;49.356;8.812;2023-02-16T07:43:36;30.53;;;19.80;;
33836;SDS011;20140;49.356;8.812;2023-02-16T07:46:03;31.67;;;19.90;;
33836;SDS011;20140;49.356;8.812;2023-02-16T07:48:29;33.83;;;21.23;;
33836;SDS011;20140;49.356;8.812;2023-02-16T07:50:54;32.93;;;21.33;;
33836;SDS011;20140;49.356;8.812;2023-02-16T07:53:20;29.40;;;20.20;;
33836;SDS011;20140;49.356;8.812;2023-02-16T07:55:45;33.87;;;20.63;;
33836;SDS011;20140;49.356;8.812;2023-02-16T07:58:11;31.90;;;21.90;;
33836;SDS011;20140;49.356;8.812;2023-02-16T08:00:52;27.10;;;19.43;;
33836;SDS011;20140;49.356;8.812;2023-02-16T08:03:22;31.38;;;20.02;;
33836;SDS011;20140;49.356;8.812;2023-02-16T08:05:47;32.10;;;20.58;;
33836;SDS011;20140;49.356;8.812;2023-02-16T08:08:13;27.67;;;21.07;;
33836;SDS011;20140;49.356;8.812;2023-02-16T08:10:38;28.60;;;21.07;;
33836;SDS011;20140;49.356;8.812;2023-02-16T08:13:04;28.33;;;19.73;;
33836;SDS011;20140;49.356;8.812;2023-02-16T08:15:30;32.03;;;21.50;;
33836;SDS011;20140;49.356;8.812;2023-02-16T08:17:55;32.47;;;21.10;;
33836;SDS011;20140;49.356;8.812;2023-02-16T08:20:21;33.97;;;21.75;;
33836;SDS011;20140;49.356;8.812;2023-02-16T08:22:47;37.17;;;26.00;;
33836;SDS011;20140;49.356;8.812;2023-02-16T08:25:12;45.00;;;30.92;;
33836;SDS011;20140;49.356;8.812;2023-02-16T08:27:40;60.40;;;38.33;;
33836;SDS011;20140;49.356;8.812;2023-02-16T08:30:06;43.58;;;28.73;;
33836;SDS011;20140;49.356;8.812;2023-02-16T08:32:37;39.90;;;27.63;;
33836;SDS011;20140;49.356;8.812;2023-02-16T08:35:05;36.28;;;24.63;;
33836;SDS011;20140;49.356;8.812;2023-02-16T08:37:31;41.38;;;29.10;;
33836;SDS011;20140;49.356;8.812;2023-02-16T08:39:57;40.17;;;28.17;;
33836;SDS011;20140;49.356;8.812;2023-02-16T08:42:24;185.80;;;96.77;;
33836;SDS011;20140;49.356;8.812;2023-02-16T08:44:50;44.08;;;26.83;;
33836;SDS011;20140;49.356;8.812;2023-02-16T08:47:16;49.78;;;32.38;;
33836;SDS011;20140;49.356;8.812;2023-02-16T08:49:44;35.60;;;23.33;;
33836;SDS011;20140;49.356;8.812;2023-02-16T08:52:09;36.97;;;24.15;;
33836;SDS011;20140;49.356;8.812;2023-02-16T08:54:36;31.70;;;22.27;;
33836;SDS011;20140;49.356;8.812;2023-02-16T08:57:03;34.37;;;23.70;;
33836;SDS011;20140;49.356;8.812;2023-02-16T08:59:28;31.25;;;20.73;;
33836;SDS011;20140;49.356;8.812;2023-02-16T09:01:57;30.08;;;19.33;;
33836;SDS011;20140;49.356;8.812;2023-02-16T09:04:24;30.98;;;20.17;;
33836;SDS011;20140;49.356;8.812;2023-02-16T09:06:51;36.25;;;24.52;;
33836;SDS011;20140;49.356;8.812;2023-02-16T09:09:17;70.18;;;46.15;;
33836;SDS011;20140;49.356;8.812;2023-02-16T09:11:43;155.07;;;97.63;;
33836;SDS011;20140;49.356;8.812;2023-02-16T09:14:09;53.35;;;36.47;;
33836;SDS011;20140;49.356;8.812;2023-02-16T09:16:35;35.75;;;24.50;;
33836;SDS011;20140;49.356;8.812;2023-02-16T09:19:03;81.93;;;46.72;;
33836;SDS011;20140;49.356;8.812;2023-02-16T09:21:30;46.70;;;31.35;;
33836;SDS011;20140;49.356;8.812;2023-02-16T09:23:57;42.47;;;28.05;;
33836;SDS011;20140;49.356;8.812;2023-02-16T09:26:25;38.30;;;26.30;;
33836;SDS011;20140;49.356;8.812;2023-02-16T09:28:53;37.72;;;25.98;;
33836;SDS011;20140;49.356;8.812;2023-02-16T09:31:29;41.20;;;27.60;;
33836;SDS011;20140;49.356;8.812;2023-02-16T09:34:07;35.20;;;23.70;;
33836;SDS011;20140;49.356;8.812;2023-02-16T09:36:37;43.40;;;27.05;;
33836;SDS011;20140;49.356;8.812;2023-02-16T09:39:02;41.22;;;26.17;;
33836;SDS011;20140;49.356;8.812;2023-02-16T09:42:15;39.13;;;25.65;;
33836;SDS011;20140;49.356;8.812;2023-02-16T09:46:53;45.55;;;29.63;;
33836;SDS011;20140;49.356;8.812;2023-02-16T09:49:22;38.95;;;27.77;;
33836;SDS011;20140;49.356;8.812;2023-02-16T09:51:55;38.63;;;25.85;;
33836;SDS011;20140;49.356;8.812;2023-02-16T09:54:32;36.47;;;24.95;;
33836;SDS011;20140;49.356;8.812;2023-02-16T09:57:06;36.70;;;25.55;;
33836;SDS011;20140;49.356;8.812;2023-02-16T09:59:46;33.95;;;24.50;;
33836;SDS011;20140;49.356;8.812;2023-02-16T10:08:00;37.00;;;25.92;;
33836;SDS011;20140;49.356;8.812;2023-02-16T10:10:44;33.42;;;23.95;;
33836;SDS011;20140;49.356;8.812;2023-02-16T10:16:05;34.00;;;24.00;;
33836;SDS011;20140;49.356;8.812;2023-02-16T10:18:39;33.72;;;24.67;;
33836;SDS011;20140;49.356;8.812;2023-02-16T10:21:12;41.03;;;30.45;;
33836;SDS011;20140;49.356;8.812;2023-02-16T10:28:50;36.63;;;26.50;;
33836;SDS011;20140;49.356;8.812;2023-02-16T10:31:28;36.38;;;24.65;;
33836;SDS011;20140;49.356;8.812;2023-02-16T10:40:36;48.50;;;32.47;;
33836;SDS011;20140;49.356;8.812;2023-02-16T10:42:54;44.30;;;31.63;;
33836;SDS011;20140;49.356;8.812;2023-02-16T10:48:15;54.50;;;39.70;;
33836;SDS011;20140;49.356;8.812;2023-02-16T10:50:42;32.47;;;22.95;;
33836;SDS011;20140;49.356;8.812;2023-02-16T10:53:18;43.65;;;32.83;;
33836;SDS011;20140;49.356;8.812;2023-02-16T10:55:48;42.53;;;32.38;;
33836;SDS011;20140;49.356;8.812;2023-02-16T10:58:23;32.50;;;22.03;;
33836;SDS011;20140;49.356;8.812;2023-02-16T11:00:55;28.75;;;21.50;;
33836;SDS011;20140;49.356;8.812;2023-02-16T11:03:28;41.22;;;29.02;;
33836;SDS011;20140;49.356;8.812;2023-02-16T11:06:06;44.97;;;32.45;;
33836;SDS011;20140;49.356;8.812;2023-02-16T11:08:48;33.20;;;23.17;;
33836;SDS011;20140;49.356;8.812;2023-02-16T11:11:17;29.40;;;20.55;;
33836;SDS011;20140;49.356;8.812;2023-02-16T11:13:47;33.17;;;24.17;;
33836;SDS011;20140;49.356;8.812;2023-02-16T11:16:18;30.57;;;23.47;;
33836;SDS011;20140;49.356;8.812;2023-02-16T11:18:47;33.08;;;23.42;;
33836;SDS011;20140;49.356;8.812;2023-02-16T11:21:20;22.85;;;16.77;;
33836;SDS011;20140;49.356;8.812;2023-02-16T11:24:08;40.75;;;32.78;;
33836;SDS011;20140;49.356;8.812;2023-02-16T11:26:36;51.03;;;37.90;;
33836;SDS011;20140;49.356;8.812;2023-02-16T11:29:06;70.20;;;52.03;;
33836;SDS011;20140;49.356;8.812;2023-02-16T11:31:42;83.90;;;63.15;;
33836;SDS011;20140;49.356;8.812;2023-02-16T11:34:12;61.53;;;48.15;;
33836;SDS011;20140;49.356;8.812;2023-02-16T11:36:45;20.35;;;16.35;;
33836;SDS011;20140;49.356;8.812;2023-02-16T11:39:19;34.63;;;28.05;;
33836;SDS011;20140;49.356;8.812;2023-02-16T11:44:42;23.38;;;18.38;;
33836;SDS011;20140;49.356;8.812;2023-02-16T11:47:21;24.23;;;17.27;;
33836;SDS011;20140;49.356;8.812;2023-02-16T11:52:46;21.45;;;15.85;;
33836;SDS011;20140;49.356;8.812;2023-02-16T11:55:27;21.08;;;14.77;;
33836;SDS011;20140;49.356;8.812;2023-02-16T11:58:18;17.63;;;13.68;;
33836;SDS011;20140;49.356;8.812;2023-02-16T12:00:54;19.77;;;15.02;;
33836;SDS011;20140;49.356;8.812;2023-02-16T12:14:40;17.33;;;13.20;;
33836;SDS011;20140;49.356;8.812;2023-02-16T12:28:29;16.42;;;12.70;;
33836;SDS011;20140;49.356;8.812;2023-02-16T12:34:08;19.00;;;14.20;;
33836;SDS011;20140;49.356;8.812;2023-02-16T12:36:48;60.78;;;43.83;;
33836;SDS011;20140;49.356;8.812;2023-02-16T12:44:54;16.83;;;13.45;;
33836;SDS011;20140;49.356;8.812;2023-02-16T12:47:27;17.23;;;13.32;;
33836;SDS011;20140;49.356;8.812;2023-02-16T12:50:03;18.05;;;12.52;;
33836;SDS011;20140;49.356;8.812;2023-02-16T12:52:47;15.37;;;11.50;;
33836;SDS011;20140;49.356;8.812;2023-02-16T12:55:48;17.90;;;12.70;;
33836;SDS011;20140;49.356;8.812;2023-02-16T12:58:22;16.00;;;12.43;;
33836;SDS011;20140;49.356;8.812;2023-02-16T13:00:57;15.60;;;11.70;;
33836;SDS011;20140;49.356;8.812;2023-02-16T13:06:15;16.23;;;12.25;;
33836;SDS011;20140;49.356;8.812;2023-02-16T13:13:34;14.98;;;9.80;;
33836;SDS011;20140;49.356;8.812;2023-02-16T13:16:05;14.68;;;9.75;;
33836;SDS011;20140;49.356;8.812;2023-02-16T13:18:37;12.68;;;9.90;;
33836;SDS011;20140;49.356;8.812;2023-02-16T13:30:07;13.37;;;10.10;;
33836;SDS011;20140;49.356;8.812;2023-02-16T13:33:02;10.82;;;8.27;;
33836;SDS011;20140;49.356;8.812;2023-02-16T13:39:31;12.10;;;7.50;;
33836;SDS011;20140;49.356;8.812;2023-02-16T13:44:40;10.88;;;7.63;;
33836;SDS011;20140;49.356;8.812;2023-02-16T13:47:25;9.00;;;7.50;;
33836;SDS011;20140;49.356;8.812;2023-02-16T13:49:55;11.55;;;8.20;;
33836;SDS011;20140;49.356;8.812;2023-02-16T13:52:32;12.23;;;7.43;;
33836;SDS011;20140;49.356;8.812;2023-02-16T13:55:01;11.13;;;6.68;;
33836;SDS011;20140;49.356;8.812;2023-02-16T14:00:25;11.13;;;7.90;;
33836;SDS011;20140;49.356;8.812;2023-02-16T14:05:24;10.07;;;7.47;;
33836;SDS011;20140;49.356;8.812;2023-02-16T14:10:54;10.13;;;7.13;;
33836;SDS011;20140;49.356;8.812;2023-02-16T14:16:06;11.27;;;7.18;;
33836;SDS011;20140;49.356;8.812;2023-02-16T14:18:53;11.57;;;7.30;;
33836;SDS011;20140;49.356;8.812;2023-02-16T14:22:02;12.15;;;7.95;;
33836;SDS011;20140;49.356;8.812;2023-02-16T14:24:20;9.32;;;6.75;;
33836;SDS011;20140;49.356;8.812;2023-02-16T14:26:54;13.63;;;7.70;;
33836;SDS011;20140;49.356;8.812;2023-02-16T14:29:25;11.13;;;6.93;;
33836;SDS011;20140;49.356;8.812;2023-02-16T14:34:38;10.13;;;7.60;;
33836;SDS011;20140;49.356;8.812;2023-02-16T14:39:40;11.70;;;7.10;;
33836;SDS011;20140;49.356;8.812;2023-02-16T14:42:13;10.40;;;7.82;;
33836;SDS011;20140;49.356;8.812;2023-02-16T14:47:52;10.23;;;8.23;;
33836;SDS011;20140;49.356;8.812;2023-02-16T14:50:44;12.27;;;7.72;;
33836;SDS011;20140;49.356;8.812;2023-02-16T15:01:37;11.90;;;7.57;;
33836;SDS011;20140;49.356;8.812;2023-02-16T15:04:08;9.30;;;7.18;;
33836;SDS011;20140;49.356;8.812;2023-02-16T15:06:39;10.23;;;8.50;;
33836;SDS011;20140;49.356;8.812;2023-02-16T15:11:42;12.55;;;7.70;;
33836;SDS011;20140;49.356;8.812;2023-02-16T15:14:35;11.80;;;8.88;;
33836;SDS011;20140;49.356;8.812;2023-02-16T15:17:43;10.23;;;7.82;;
33836;SDS011;20140;49.356;8.812;2023-02-16T15:22:55;10.85;;;8.02;;
33836;SDS011;20140;49.356;8.812;2023-02-16T15:25:27;10.95;;;8.23;;
33836;SDS011;20140;49.356;8.812;2023-02-16T15:28:18;12.75;;;8.35;;
33836;SDS011;20140;49.356;8.812;2023-02-16T15:30:47;11.95;;;8.02;;
33836;SDS011;20140;49.356;8.812;2023-02-16T15:35:46;9.50;;;7.28;;
33836;SDS011;20140;49.356;8.812;2023-02-16T15:38:28;9.98;;;8.10;;
33836;SDS011;20140;49.356;8.812;2023-02-16T15:41:00;12.55;;;7.20;;
33836;SDS011;20140;49.356;8.812;2023-02-16T15:43:49;10.65;;;7.20;;
33836;SDS011;20140;49.356;8.812;2023-02-16T15:46:25;9.32;;;7.07;;
33836;SDS011;20140;49.356;8.812;2023-02-16T15:48:56;10.15;;;7.07;;
33836;SDS011;20140;49.356;8.812;2023-02-16T15:51:30;9.20;;;6.63;;
33836;SDS011;20140;49.356;8.812;2023-02-16T15:54:41;13.02;;;7.43;;
33836;SDS011;20140;49.356;8.812;2023-02-16T15:56:52;8.90;;;6.93;;
33836;SDS011;20140;49.356;8.812;2023-02-16T15:59:38;8.85;;;6.28;;
33836;SDS011;20140;49.356;8.812;2023-02-16T16:02:30;11.23;;;7.55;;
33836;SDS011;20140;49.356;8.812;2023-02-16T16:05:03;11.30;;;7.72;;
33836;SDS011;20140;49.356;8.812;2023-02-16T16:07:35;11.65;;;8.13;;
33836;SDS011;20140;49.356;8.812;2023-02-16T16:12:39;10.55;;;7.35;;
33836;SDS011;20140;49.356;8.812;2023-02-16T16:15:05;10.25;;;6.97;;
33836;SDS011;20140;49.356;8.812;2023-02-16T16:17:32;11.18;;;7.18;;
33836;SDS011;20140;49.356;8.812;2023-02-16T16:25:38;9.70;;;7.07;;
33836;SDS011;20140;49.356;8.812;2023-02-16T16:31:08;11.43;;;6.95;;
33836;SDS011;20140;49.356;8.812;2023-02-16T16:33:52;10.77;;;7.35;;
33836;SDS011;20140;49.356;8.812;2023-02-16T16:41:43;9.80;;;7.32;;
33836;SDS011;20140;49.356;8.812;2023-02-16T16:44:35;8.82;;;7.03;;
33836;SDS011;20140;49.356;8.812;2023-02-16T16:52:47;9.60;;;6.45;;
33836;SDS011;20140;49.356;8.812;2023-02-16T16:55:19;9.63;;;7.22;;
33836;SDS011;20140;49.356;8.812;2023-02-16T16:57:54;9.90;;;6.00;;
33836;SDS011;20140;49.356;8.812;2023-02-16T17:00:23;20.98;;;7.07;;
33836;SDS011;20140;49.356;8.812;2023-02-16T17:02:50;10.88;;;6.88;;
33836;SDS011;20140;49.356;8.812;2023-02-16T17:05:16;11.63;;;6.50;;
33836;SDS011;20140;49.356;8.812;2023-02-16T17:07:42;9.63;;;7.10;;
33836;SDS011;20140;49.356;8.812;2023-02-16T17:10:08;9.90;;;7.07;;
33836;SDS011;20140;49.356;8.812;2023-02-16T17:12:33;9.02;;;7.00;;
33836;SDS011;20140;49.356;8.812;2023-02-16T17:15:00;11.27;;;6.75;;
33836;SDS011;20140;49.356;8.812;2023-02-16T17:17:26;11.23;;;7.93;;
33836;SDS011;20140;49.356;8.812;2023-02-16T17:19:51;11.43;;;7.90;;
33836;SDS011;20140;49.356;8.812;2023-02-16T17:22:18;11.50;;;8.67;;
33836;SDS011;20140;49.356;8.812;2023-02-16T17:24:44;14.70;;;9.02;;
33836;SDS011;20140;49.356;8.812;2023-02-16T17:27:11;12.23;;;8.88;;
33836;SDS011;20140;49.356;8.812;2023-02-16T17:29:37;13.93;;;8.95;;
33836;SDS011;20140;49.356;8.812;2023-02-16T17:32:03;12.82;;;9.10;;
33836;SDS011;20140;49.356;8.812;2023-02-16T17:34:29;12.20;;;8.75;;
33836;SDS011;20140;49.356;8.812;2023-02-16T17:36:58;13.10;;;8.73;;
33836;SDS011;20140;49.356;8.812;2023-02-16T17:39:26;12.63;;;9.13;;
33836;SDS011;20140;49.356;8.812;2023-02-16T17:41:53;15.00;;;8.10;;
33836;SDS011;20140;49.356;8.812;2023-02-16T17:44:18;9.60;;;7.90;;
33836;SDS011;20140;49.356;8.812;2023-02-16T17:46:44;12.97;;;8.80;;
33836;SDS011;20140;49.356;8.812;2023-02-16T17:49:10;14.55;;;10.10;;